Time;durP1;ratioP1;P1;durP2;ratioP2;P2;SDS_P1;SDS_P2;PMS_P1;PMS_P2;Temp;Humidity;BMP_temperature;BMP_pressure;BME280_temperature;BME280_humidity;BME280_pressure;Samples;Min_cycle;Max_cycle;Signal;HPM_P1;HPM_P2
2023/06/23 00:02:12;;;;;;;120.85;110.25;;;;;;;20.41;100.00;101212.63;6065642;23;20051;-82
2023/06/23 00:04:45;;;;;;;137.13;125.63;;;;;;;20.34;100.00;101218.25;6065374;23;20058;-80
2023/06/23 00:07:20;;;;;;;127.53;116.07;;;;;;;20.20;100.00;101217.06;6065415;23;20019;-80
2023/06/23 00:09:51;;;;;;;118.75;108.03;;;;;;;20.38;100.00;101227.44;6064918;23;20022;-80
2023/06/23 00:12:22;;;;;;;124.18;113.35;;;;;;;20.40;100.00;101228.00;6064989;23;20101;-83
2023/06/23 00:14:49;;;;;;;115.32;104.85;;;;;;;20.28;100.00;101214.69;6065096;23;20025;-82
2023/06/23 00:17:16;;;;;;;106.53;96.75;;;;;;;20.18;100.00;101219.19;6065158;23;20078;-82
2023/06/23 00:19:43;;;;;;;111.18;100.80;;;;;;;20.16;100.00;101216.78;6065452;23;20023;-82
2023/06/23 00:22:10;;;;;;;110.97;100.72;;;;;;;20.25;100.00;101220.59;6065580;23;20014;-82
2023/06/23 00:24:37;;;;;;;125.43;114.60;;;;;;;20.01;100.00;101222.84;6065159;23;20432;-82
2023/06/23 00:27:04;;;;;;;124.60;113.80;;;;;;;19.91;100.00;101225.47;6066974;23;20019;-82
2023/06/23 00:29:32;;;;;;;151.30;138.82;;;;;;;20.32;100.00;101220.38;6067177;23;20030;-82
2023/06/23 00:31:59;;;;;;;118.28;107.78;;;;;;;20.27;100.00;101223.03;6066775;23;20027;-80
2023/06/23 00:34:26;;;;;;;115.68;105.43;;;;;;;20.24;100.00;101228.94;6066460;23;20023;-80
2023/06/23 00:37:09;;;;;;;114.43;103.95;;;;;;;20.34;100.00;101224.47;6066527;23;20023;-80
2023/06/23 00:39:38;;;;;;;126.72;115.80;;;;;;;20.28;100.00;101227.38;6066085;23;20022;-80
2023/06/23 00:42:06;;;;;;;135.18;123.65;;;;;;;20.14;100.00;101227.00;6066033;23;20033;-80
2023/06/23 00:44:37;;;;;;;144.13;132.02;;;;;;;20.07;100.00;101231.78;6066224;23;20481;-80
2023/06/23 00:47:05;;;;;;;140.57;128.55;;;;;;;20.08;100.00;101228.81;6066627;23;20026;-80
2023/06/23 00:49:34;;;;;;;136.75;124.32;;;;;;;19.86;100.00;101218.13;6066505;23;20026;-80
2023/06/23 00:52:03;;;;;;;142.48;130.35;;;;;;;19.53;100.00;101234.47;6066096;23;20090;-80
2023/06/23 00:54:34;;;;;;;139.38;126.90;;;;;;;19.28;100.00;101229.63;6066272;23;20401;-80
2023/06/23 00:57:04;;;;;;;158.63;145.52;;;;;;;19.55;100.00;101225.06;6066119;23;20561;-80
2023/06/23 00:59:32;;;;;;;126.75;115.47;;;;;;;19.39;100.00;101217.88;6066444;23;20023;-80
2023/06/23 01:02:05;;;;;;;130.60;119.07;;;;;;;19.84;100.00;101227.53;6066144;23;20101;-80
2023/06/23 01:04:38;;;;;;;125.03;114.03;;;;;;;19.34;100.00;101231.31;6066223;23;20029;-80
2023/06/23 01:07:15;;;;;;;118.82;108.47;;;;;;;19.47;100.00;101230.09;6065445;23;20023;-80
2023/06/23 01:09:51;;;;;;;113.65;103.43;;;;;;;19.36;100.00;101229.97;6065314;23;20476;-80
2023/06/23 01:12:27;;;;;;;157.38;144.40;;;;;;;19.55;100.00;101225.06;6065191;23;20507;-80
2023/06/23 01:15:02;;;;;;;129.32;118.25;;;;;;;19.09;100.00;101229.94;6064591;23;20019;-80
2023/06/23 01:17:37;;;;;;;142.45;130.20;;;;;;;19.49;100.00;101227.97;6065301;23;20019;-81
2023/06/23 01:20:20;;;;;;;140.15;128.25;;;;;;;19.59;100.00;101223.50;6064767;23;20034;-80
2023/06/23 01:22:59;;;;;;;138.57;126.63;;;;;;;19.61;100.00;101223.25;6064803;23;20023;-80
2023/06/23 01:25:41;;;;;;;140.23;128.43;;;;;;;19.63;100.00;101226.47;6064738;23;20023;-80
2023/06/23 01:28:41;;;;;;;128.15;116.78;;;;;;;19.72;100.00;101224.19;6064872;23;20029;-80
2023/06/23 01:31:13;;;;;;;241.40;223.77;;;;;;;19.70;100.00;101224.44;6065032;23;20494;-80
2023/06/23 01:33:45;;;;;;;156.23;143.63;;;;;;;19.67;100.00;101223.06;6065060;23;20026;-79
2023/06/23 01:36:15;;;;;;;123.10;112.30;;;;;;;19.58;100.00;101231.84;6065084;23;20281;-80
2023/06/23 01:38:48;;;;;;;120.65;109.95;;;;;;;19.03;100.00;101230.91;6064048;23;20022;-79
2023/06/23 01:41:20;;;;;;;122.50;111.60;;;;;;;18.99;100.00;101238.66;6064241;23;20346;-80
2023/06/23 01:43:51;;;;;;;116.70;106.00;;;;;;;18.97;100.00;101232.75;6064902;23;20335;-81
2023/06/23 01:46:26;;;;;;;128.45;117.20;;;;;;;19.43;100.00;101236.00;6064615;23;20027;-80
2023/06/23 01:48:58;;;;;;;131.88;120.15;;;;;;;19.53;100.00;101226.38;6064369;23;20023;-80
2023/06/23 01:51:27;;;;;;;127.65;116.32;;;;;;;19.51;100.00;101236.59;6064595;23;20073;-80
2023/06/23 01:53:55;;;;;;;134.18;122.38;;;;;;;19.34;100.00;101231.31;6064505;23;20023;-80
2023/06/23 01:56:25;;;;;;;126.45;115.20;;;;;;;19.30;100.00;101239.03;6064443;23;20022;-80
2023/06/23 01:58:54;;;;;;;132.32;120.85;;;;;;;19.30;100.00;101244.44;6064307;23;20026;-80
2023/06/23 02:01:23;;;;;;;146.32;133.77;;;;;;;19.29;100.00;101240.13;6064055;23;20465;-80
2023/06/23 02:03:50;;;;;;;145.40;133.10;;;;;;;18.63;100.00;101239.22;6064232;23;20030;-80
2023/06/23 02:06:18;;;;;;;147.40;134.63;;;;;;;18.71;100.00;101250.38;6064303;23;20041;-80
2023/06/23 02:08:46;;;;;;;163.93;150.32;;;;;;;19.21;100.00;101246.78;6064618;23;20034;-80
2023/06/23 02:11:14;;;;;;;148.82;135.93;;;;;;;19.29;100.00;101245.50;6064568;23;20422;-80
2023/06/23 02:13:43;;;;;;;138.18;125.75;;;;;;;19.44;100.00;101247.56;6064674;23;20023;-80
2023/06/23 02:16:13;;;;;;;143.00;130.80;;;;;;;18.94;100.00;101256.63;6064566;23;20027;-80
2023/06/23 02:18:42;;;;;;;126.18;113.85;;;;;;;19.38;100.00;101245.88;6064401;23;20369;-80
2023/06/23 02:21:14;;;;;;;120.43;109.13;;;;;;;19.25;100.00;101251.66;6064408;23;20027;-80
2023/06/23 02:23:42;;;;;;;125.38;113.97;;;;;;;18.71;100.00;101247.69;6064868;23;20030;-80
2023/06/23 02:26:10;;;;;;;116.63;105.53;;;;;;;19.17;100.00;101251.00;6064400;23;20015;-82
2023/06/23 02:28:37;;;;;;;109.93;99.15;;;;;;;19.17;100.00;101250.22;6065163;23;20019;-82
2023/06/23 02:31:07;;;;;;;114.70;103.55;;;;;;;19.23;100.00;101258.09;6064519;23;20023;-80
2023/06/23 02:33:35;;;;;;;91.53;82.40;;;;;;;19.26;100.00;101250.59;6064622;23;20381;-80
2023/06/23 02:36:05;;;;;;;93.00;83.50;;;;;;;19.29;100.00;101250.09;6064974;23;20042;-83
2023/06/23 02:38:36;;;;;;;95.78;80.15;;;;;;;19.13;100.00;101249.09;6065404;23;20066;-82
2023/06/23 02:41:06;;;;;;;81.75;73.47;;;;;;;19.14;100.00;101254.22;6065355;23;20058;-82
2023/06/23 02:43:39;;;;;;;85.25;76.95;;;;;;;18.89;100.00;101253.88;6064859;23;20023;-80
2023/06/23 02:46:10;;;;;;;83.07;74.78;;;;;;;19.04;100.00;101253.28;6064267;23;20023;-80
2023/06/23 02:48:43;;;;;;;78.85;71.05;;;;;;;18.91;100.00;101244.50;6064199;23;20102;-80
2023/06/23 02:51:14;;;;;;;76.40;68.70;;;;;;;19.05;100.00;101242.25;6064379;23;20022;-82
2023/06/23 02:53:47;;;;;;;78.60;70.53;;;;;;;19.12;100.00;101242.06;6064620;23;20023;-82
2023/06/23 02:56:19;;;;;;;77.90;69.95;;;;;;;18.96;100.00;101244.56;6064838;23;20469;-83
2023/06/23 02:58:48;;;;;;;78.03;70.55;;;;;;;18.91;100.00;101238.28;6065328;23;20026;-82
2023/06/23 03:01:17;;;;;;;83.38;75.20;;;;;;;19.02;100.00;101247.31;6064854;23;20019;-82
2023/06/23 03:03:46;;;;;;;79.82;71.70;;;;;;;19.08;100.00;101247.13;6064681;23;20090;-83
2023/06/23 03:06:19;;;;;;;76.07;68.57;;;;;;;19.15;100.00;101241.56;6064124;23;20033;-80
2023/06/23 03:08:46;;;;;;;83.50;75.63;;;;;;;19.28;100.00;101243.09;6064351;23;20046;-79
2023/06/23 03:11:15;;;;;;;82.93;75.07;;;;;;;19.34;100.00;101244.78;6064919;23;20027;-80
2023/06/23 03:13:43;;;;;;;81.93;74.03;;;;;;;19.27;100.00;101238.75;6064437;23;20030;-80
2023/06/23 03:16:14;;;;;;;82.78;74.93;;;;;;;19.43;100.00;101244.06;6063698;23;20086;-80
2023/06/23 03:18:48;;;;;;;83.78;75.75;;;;;;;19.48;100.00;101242.47;6063762;23;20019;-79
2023/06/23 03:21:17;;;;;;;83.38;75.13;;;;;;;19.53;100.00;101243.34;6064037;23;20023;-80
2023/06/23 03:23:49;;;;;;;84.13;76.10;;;;;;;19.59;100.00;101239.66;6063790;23;20473;-80
2023/06/23 03:26:17;;;;;;;;;;;;;;;19.67;100.00;101249.22;6064817;23;20082;-83
2023/06/23 03:28:48;;;;;;;82.95;74.57;;;;;;;19.31;100.00;101232.63;6064964;23;20300;-80
2023/06/23 03:31:16;;;;;;;87.55;78.80;;;;;;;19.52;100.00;101246.31;6064233;23;20029;-82
2023/06/23 03:33:47;;;;;;;86.00;77.30;;;;;;;19.70;100.00;101237.09;6063962;23;20019;-80
2023/06/23 03:36:18;;;;;;;87.05;78.95;;;;;;;19.94;100.00;101251.06;6063562;23;20106;-80
2023/06/23 03:38:50;;;;;;;90.88;82.25;;;;;;;20.00;100.00;101250.03;6064144;23;20426;-80
2023/06/23 03:41:17;;;;;;;87.57;79.68;;;;;;;20.01;100.00;101239.03;6063776;23;20019;-80
2023/06/23 03:43:50;;;;;;;85.03;77.15;;;;;;;20.01;100.00;101244.41;6064139;23;20626;-80
2023/06/23 03:46:21;;;;;;;90.50;81.70;;;;;;;20.28;100.00;101236.28;6064035;23;20035;-80
2023/06/23 03:48:54;;;;;;;88.30;79.63;;;;;;;20.30;100.00;101236.84;6063809;23;20023;-79
2023/06/23 03:51:22;;;;;;;87.28;78.47;;;;;;;20.31;100.00;101241.16;6063826;23;20023;-80
2023/06/23 03:53:51;;;;;;;92.50;83.80;;;;;;;20.30;100.00;101244.09;6063918;23;20421;-80
2023/06/23 03:56:20;;;;;;;87.55;78.90;;;;;;;20.46;100.00;101245.03;6063923;23;20037;-80
2023/06/23 03:58:49;;;;;;;89.65;81.43;;;;;;;20.50;100.00;101238.06;6063737;23;20023;-80
2023/06/23 04:01:17;;;;;;;93.30;84.63;;;;;;;20.68;100.00;101237.66;6064679;23;20026;-80
2023/06/23 04:03:45;;;;;;;91.13;82.88;;;;;;;20.69;100.00;101249.25;6066662;23;20389;-83
2023/06/23 04:06:14;;;;;;;92.80;84.15;;;;;;;20.71;100.00;101253.34;6067090;23;20373;-82
2023/06/23 04:08:43;;;;;;;96.40;88.05;;;;;;;20.79;100.00;101260.94;6066918;23;20018;-83
2023/06/23 04:11:13;;;;;;;98.85;90.25;;;;;;;20.81;100.00;101249.88;6066725;23;20496;-83
2023/06/23 04:13:42;;;;;;;96.57;88.15;;;;;;;20.68;100.00;101247.66;6066971;23;20026;-83
2023/06/23 04:16:10;;;;;;;101.25;91.95;;;;;;;20.72;100.00;101257.66;6066675;23;20030;-83
2023/06/23 04:18:39;;;;;;;104.65;95.85;;;;;;;20.90;100.00;101255.59;6066196;23;20042;-83
2023/06/23 04:21:08;;;;;;;101.35;92.85;;;;;;;21.12;100.00;101247.31;6066648;23;20023;-83
2023/06/23 04:23:39;;;;;;;100.13;91.85;;;;;;;21.09;100.00;101254.09;6061411;23;20019;-83
2023/06/23 04:26:09;;;;;;;101.40;92.85;;;;;;;21.02;100.00;101246.19;6063820;23;20027;-83
2023/06/23 04:28:37;;;;;;;94.88;86.53;;;;;;;21.16;100.00;101246.53;6062694;23;20023;-83
2023/06/23 04:31:07;;;;;;;99.10;90.70;;;;;;;21.17;100.00;101247.34;6062840;23;20046;-82
2023/06/23 04:33:34;;;;;;;99.47;90.90;;;;;;;21.20;100.00;101247.63;6062891;23;20031;-83
2023/06/23 04:36:10;;;;;;;105.75;96.50;;;;;;;21.54;100.00;101249.94;6062798;23;20443;-83
2023/06/23 04:38:43;;;;;;;100.97;91.95;;;;;;;21.56;100.00;101249.69;6063456;23;20477;-83
2023/06/23 04:41:16;;;;;;;107.30;97.72;;;;;;;21.75;100.00;101250.00;6064234;23;20440;-83
2023/06/23 04:43:47;;;;;;;105.30;96.90;;;;;;;21.57;100.00;101240.47;6061743;23;20033;-80
2023/06/23 04:46:20;;;;;;;96.68;88.53;;;;;;;21.87;100.00;101247.84;6060855;23;20422;-79
2023/06/23 04:48:50;;;;;;;105.45;96.95;;;;;;;21.93;100.00;101252.19;6062676;23;20027;-83
2023/06/23 04:51:18;;;;;;;100.65;92.53;;;;;;;21.94;100.00;101251.13;6062542;23;20026;-83
2023/06/23 04:53:53;;;;;;;103.28;94.60;;;;;;;21.92;100.00;101242.44;6063067;23;20027;-83
2023/06/23 04:56:23;;;;;;;103.82;95.47;;;;;;;22.19;100.00;101244.94;6062032;23;20108;-83
2023/06/23 04:58:55;;;;;;;104.13;95.95;;;;;;;22.08;100.00;101246.78;6062193;23;20512;-83
2023/06/23 05:01:22;;;;;;;102.13;94.27;;;;;;;22.15;100.00;101252.75;6062279;23;20019;-83
2023/06/23 05:03:51;;;;;;;102.60;94.82;;;;;;;22.37;100.00;101246.28;6062516;23;20023;-83
2023/06/23 05:06:20;;;;;;;109.30;101.20;;;;;;;22.57;100.00;101240.84;6063057;23;20022;-83
2023/06/23 05:08:50;;;;;;;111.82;103.30;;;;;;;22.94;100.00;101245.09;6062521;23;20030;-83
2023/06/23 05:11:18;;;;;;;101.53;93.95;;;;;;;22.63;100.00;101231.63;6062766;23;20089;-83
2023/06/23 05:13:47;;;;;;;104.55;96.63;;;;;;;22.91;100.00;101245.63;6062141;23;20019;-83
2023/06/23 05:16:15;;;;;;;102.00;94.03;;;;;;;23.04;100.00;101246.97;6062897;23;20700;-83
2023/06/23 05:18:44;;;;;;;91.28;84.03;;;;;;;23.21;100.00;101247.44;6065334;23;20018;-82
2023/06/23 05:21:14;;;;;;;92.32;84.63;;;;;;;23.17;100.00;101237.44;6065005;23;20015;-83
2023/06/23 05:23:43;;;;;;;91.75;83.72;;;;;;;23.28;100.00;101242.53;6065681;23;20477;-80
2023/06/23 05:26:14;;;;;;;84.93;77.43;;;;;;;23.42;100.00;101250.03;6064593;23;20027;-80
2023/06/23 05:28:44;;;;;;;84.65;77.57;;;;;;;23.58;100.00;101251.59;6065360;23;20504;-80
2023/06/23 05:31:13;;;;;;;81.95;75.00;;;;;;;23.52;100.00;101256.22;6064713;23;20022;-80
2023/06/23 05:33:43;;;;;;;90.70;82.43;;;;;;;23.93;100.00;101261.44;6064365;23;20027;-80
2023/06/23 05:36:12;;;;;;;80.60;72.78;;;;;;;24.00;100.00;101259.19;6064533;23;20034;-80
2023/06/23 05:38:42;;;;;;;75.53;69.65;;;;;;;23.97;100.00;101258.97;6064967;23;20023;-80
2023/06/23 05:41:09;;;;;;;87.53;79.78;;;;;;;24.14;100.00;101261.25;6065287;23;20022;-80
2023/06/23 05:43:38;;;;;;;78.18;71.97;;;;;;;24.07;100.00;101263.50;6064450;23;20022;-80
2023/06/23 05:46:14;;;;;;;75.82;69.88;;;;;;;24.14;100.00;101267.50;6065292;23;20023;-82
2023/06/23 05:48:47;;;;;;;78.35;72.38;;;;;;;24.34;100.00;101258.38;6065749;23;20027;-82
2023/06/23 05:51:18;;;;;;;77.70;71.47;;;;;;;24.32;100.00;101265.97;6065978;23;20026;-82
2023/06/23 05:53:49;;;;;;;79.20;72.93;;;;;;;24.54;100.00;101264.72;6065315;23;20015;-83
2023/06/23 05:56:22;;;;;;;71.45;65.70;;;;;;;24.63;100.00;101258.41;6065608;23;20429;-79
2023/06/23 05:58:57;;;;;;;71.50;65.55;;;;;;;24.78;100.00;101256.63;6064553;23;20019;-80
2023/06/23 06:01:27;;;;;;;73.95;67.57;;;;;;;24.96;100.00;101258.56;6064316;23;20018;-80
2023/06/23 06:04:02;;;;;;;67.75;62.25;;;;;;;24.99;100.00;101249.03;6064177;23;20030;-79
2023/06/23 06:06:30;;;;;;;71.90;65.68;;;;;;;25.29;100.00;101245.16;6064173;23;20078;-80
2023/06/23 06:08:58;;;;;;;65.25;59.58;;;;;;;25.32;100.00;101241.88;6064466;23;20031;-80
2023/06/23 06:11:29;;;;;;;64.78;59.22;;;;;;;25.33;100.00;101247.03;6064810;23;20022;-80
2023/06/23 06:13:59;;;;;;;67.07;61.47;;;;;;;25.57;100.00;101243.44;6064066;23;20454;-80
2023/06/23 06:16:27;;;;;;;67.68;61.80;;;;;;;25.73;100.00;101239.38;6064361;23;20030;-80
2023/06/23 06:18:55;;;;;;;59.47;54.15;;;;;;;25.78;100.00;101241.19;6064341;23;20030;-82
2023/06/23 06:21:24;;;;;;;57.72;52.83;;;;;;;25.85;100.00;101236.25;6062875;23;20019;-82
2023/06/23 06:23:54;;;;;;;58.10;53.30;;;;;;;26.15;100.00;101240.38;6062573;23;20030;-83
2023/06/23 06:26:22;;;;;;;62.53;57.33;;;;;;;26.25;100.00;101245.63;6062632;23;20023;-82
2023/06/23 06:28:51;;;;;;;60.30;55.53;;;;;;;26.26;100.00;101239.13;6064674;23;20023;-83
2023/06/23 06:31:20;;;;;;;56.08;51.42;;;;;;;26.24;100.00;101238.59;6064577;23;20030;-81
2023/06/23 06:33:51;;;;;;;59.97;55.28;;;;;;;26.72;100.00;101237.50;6064461;23;20027;-82
2023/06/23 06:36:20;;;;;;;58.15;53.65;;;;;;;26.82;100.00;101229.09;6064059;23;20042;-80
2023/06/23 06:38:50;;;;;;;50.50;46.20;;;;;;;26.69;100.00;101238.09;6063229;23;20030;-80
2023/06/23 06:41:20;;;;;;;56.63;51.60;;;;;;;26.71;100.00;101239.38;6063006;23;20393;-80
2023/06/23 06:43:47;;;;;;;51.35;47.05;;;;;;;26.67;100.00;101232.13;6062902;23;20383;-81
2023/06/23 06:46:16;;;;;;;47.40;43.20;;;;;;;26.79;100.00;101223.47;6062989;23;20022;-80
2023/06/23 06:48:46;;;;;;;48.67;43.97;;;;;;;26.90;100.00;101228.41;6062751;23;20045;-80
2023/06/23 06:51:17;;;;;;;42.85;39.15;;;;;;;26.87;100.00;101228.19;6063107;23;20030;-80
2023/06/23 06:53:44;;;;;;;72.90;53.45;;;;;;;27.21;100.00;101216.09;6063283;23;20086;-80
2023/06/23 06:56:12;;;;;;;46.85;42.78;;;;;;;27.28;100.00;101219.19;6062855;23;20027;-80
2023/06/23 06:58:40;;;;;;;40.50;37.22;;;;;;;26.90;100.00;101212.06;6063590;23;20078;-80
2023/06/23 07:01:08;;;;;;;53.40;49.33;;;;;;;27.62;100.00;101214.03;6063378;23;20022;-80
2023/06/23 07:03:39;;;;;;;42.33;38.03;;;;;;;27.51;100.00;101220.84;6062907;23;20118;-80
2023/06/23 07:06:08;;;;;;;45.00;41.17;;;;;;;27.84;100.00;101217.94;6064155;23;20074;-83
2023/06/23 07:08:35;;;;;;;38.85;35.33;;;;;;;27.60;100.00;101208.09;6064398;23;20472;-82
2023/06/23 07:11:02;;;;;;;37.70;34.50;;;;;;;27.66;100.00;101222.41;6064330;23;20025;-83
2023/06/23 07:13:29;;;;;;;42.83;39.20;;;;;;;28.14;100.00;101216.38;6064433;23;20082;-83
2023/06/23 07:15:56;;;;;;;36.90;33.75;;;;;;;27.98;100.00;101209.66;6064171;23;20050;-83
2023/06/23 07:18:24;;;;;;;40.15;36.95;;;;;;;28.05;100.00;101212.78;6065099;23;20487;-83
2023/06/23 07:20:51;;;;;;;36.90;34.03;;;;;;;28.09;100.00;101209.09;6064131;23;20034;-83
2023/06/23 07:23:19;;;;;;;35.28;32.30;;;;;;;28.51;100.00;101206.13;6064953;23;20450;-83
2023/06/23 07:25:46;;;;;;;38.63;35.53;;;;;;;28.52;100.00;101205.00;6063823;23;20018;-83
2023/06/23 07:28:13;;;;;;;31.30;28.80;;;;;;;28.61;100.00;101205.84;6063654;23;20031;-80
2023/06/23 07:30:41;;;;;;;28.95;26.63;;;;;;;28.56;100.00;101203.22;6062320;23;20019;-81
2023/06/23 07:33:09;;;;;;;33.42;30.77;;;;;;;28.52;100.00;101199.53;6064761;23;20536;-83
2023/06/23 07:35:43;;;;;;;31.10;28.48;;;;;;;28.69;100.00;101207.00;6064616;23;20477;-83
2023/06/23 07:38:10;;;;;;;31.63;29.42;;;;;;;28.70;100.00;101200.41;6064980;23;20026;-83
2023/06/23 07:40:38;;;;;;;29.23;26.88;;;;;;;28.88;100.00;101204.00;6065492;23;20023;-83
2023/06/23 07:43:13;;;;;;;27.80;25.60;;;;;;;28.82;100.00;101203.34;6065303;23;20029;-83
2023/06/23 07:45:42;;;;;;;27.95;25.85;;;;;;;29.14;100.00;101202.16;6065108;23;20029;-83
2023/06/23 07:48:41;;;;;;;27.58;25.48;;;;;;;29.18;100.00;101196.84;6065069;23;20026;-83
2023/06/23 07:51:09;;;;;;;27.20;24.90;;;;;;;28.90;100.00;101194.34;6065151;23;20026;-83
2023/06/23 07:53:36;;;;;;;27.63;25.25;;;;;;;29.10;100.00;101200.34;6064470;23;20113;-83
2023/06/23 07:56:05;;;;;;;27.95;25.75;;;;;;;29.49;100.00;101206.84;6064605;23;20045;-83
2023/06/23 07:58:32;;;;;;;26.63;24.33;;;;;;;29.40;100.00;101196.69;6065205;23;20023;-82
2023/06/23 08:00:59;;;;;;;28.88;26.50;;;;;;;29.63;100.00;101194.63;6064881;23;20042;-83
2023/06/23 08:03:26;;;;;;;29.17;26.85;;;;;;;29.57;100.00;101193.16;6064772;23;20018;-83
2023/06/23 08:05:56;;;;;;;27.30;24.98;;;;;;;29.72;100.00;101194.63;6064861;23;20022;-82
2023/06/23 08:08:22;;;;;;;24.23;22.42;;;;;;;29.64;100.00;101182.53;6064518;23;20054;-83
2023/06/23 08:10:49;;;;;;;23.92;22.05;;;;;;;29.79;100.00;101191.38;6064708;23;20019;-83
2023/06/23 08:13:19;;;;;;;25.08;23.08;;;;;;;29.75;100.00;101184.97;6064750;23;20539;-80
2023/06/23 08:15:46;;;;;;;24.45;22.45;;;;;;;30.06;100.00;101187.47;6061825;23;20098;-80
2023/06/23 08:18:15;;;;;;;25.67;23.75;;;;;;;29.67;100.00;101176.41;6065096;23;20402;-83
2023/06/23 08:20:42;;;;;;;25.02;23.13;;;;;;;30.12;100.00;101172.47;6064751;23;20022;-83
2023/06/23 08:23:09;;;;;;;28.92;26.92;;;;;;;30.51;100.00;101174.09;6065899;23;20378;-83
2023/06/23 08:25:36;;;;;;;27.80;25.48;;;;;;;30.50;100.00;101178.00;6065655;23;20023;-83
2023/06/23 08:28:03;;;;;;;31.00;28.63;;;;;;;30.42;100.00;101178.81;6065580;23;20454;-83
2023/06/23 08:30:37;;;;;;;28.70;26.50;;;;;;;29.94;100.00;101181.84;6065819;23;20023;-83
2023/06/23 08:33:04;;;;;;;26.63;24.75;;;;;;;29.80;100.00;101171.09;6065650;23;20018;-83
2023/06/23 08:35:31;;;;;;;26.33;24.10;;;;;;;30.22;100.00;101174.06;6065264;23;20026;-83
2023/06/23 08:37:58;;;;;;;27.75;25.55;;;;;;;30.51;100.00;101165.09;6065502;23;20022;-82
2023/06/23 08:40:25;;;;;;;26.02;23.95;;;;;;;30.49;100.00;101170.09;6065397;23;20019;-83
2023/06/23 08:42:52;;;;;;;27.88;25.88;;;;;;;30.59;100.00;101175.19;6065863;23;20019;-83
2023/06/23 08:45:20;;;;;;;27.65;25.35;;;;;;;30.29;100.00;101179.84;6065718;23;20027;-83
2023/06/23 08:47:53;;;;;;;28.17;26.00;;;;;;;30.26;100.00;101169.53;6066615;23;20458;-83
2023/06/23 08:50:21;;;;;;;27.25;25.33;;;;;;;30.60;100.00;101176.00;6067657;23;20457;-82
2023/06/23 08:52:48;;;;;;;26.50;24.50;;;;;;;30.15;100.00;101168.28;6067025;23;20504;-83
2023/06/23 08:55:16;;;;;;;26.83;24.83;;;;;;;30.91;100.00;101170.19;6066881;23;20019;-83
2023/06/23 08:57:44;;;;;;;27.58;25.67;;;;;;;30.53;100.00;101173.75;6066890;23;20015;-83
2023/06/23 09:00:17;;;;;;;28.30;26.20;;;;;;;30.77;100.00;101167.66;6067050;23;20050;-83
2023/06/23 09:02:44;;;;;;;28.63;26.17;;;;;;;31.06;100.00;101171.56;6066944;23;20023;-84
2023/06/23 09:05:25;;;;;;;29.05;26.75;;;;;;;31.06;100.00;101168.81;6066682;23;20026;-80
2023/06/23 09:08:00;;;;;;;29.52;27.08;;;;;;;31.14;100.00;101160.53;6066598;23;20033;-83
2023/06/23 09:10:37;;;;;;;29.42;27.33;;;;;;;31.42;100.00;101168.22;6066815;23;20469;-83
2023/06/23 09:13:18;;;;;;;29.38;27.27;;;;;;;31.21;100.00;101166.25;6067107;23;20023;-83
2023/06/23 09:15:58;;;;;;;27.58;25.60;;;;;;;31.22;100.00;101170.59;6067144;23;20078;-83
2023/06/23 09:18:41;;;;;;;29.00;26.88;;;;;;;30.65;100.00;101159.34;6066920;23;20083;-83
2023/06/23 09:21:10;;;;;;;30.95;28.75;;;;;;;30.96;100.00;101153.56;6066823;23;20027;-84
2023/06/23 09:23:37;;;;;;;31.05;28.65;;;;;;;30.63;100.00;101156.97;6067011;23;20022;-83
2023/06/23 09:26:06;;;;;;;27.95;25.85;;;;;;;30.88;100.00;101154.41;6067290;23;20030;-83
2023/06/23 09:28:37;;;;;;;28.98;26.77;;;;;;;30.77;100.00;101156.69;6067067;23;20105;-83
2023/06/23 09:31:15;;;;;;;29.88;27.38;;;;;;;31.07;100.00;101162.19;6066948;23;20025;-83
2023/06/23 09:33:49;;;;;;;29.60;27.20;;;;;;;30.70;100.00;101165.44;6067225;23;20019;-83
2023/06/23 09:36:34;;;;;;;32.85;30.55;;;;;;;29.78;100.00;101160.47;6066930;23;20366;-83
2023/06/23 09:39:02;;;;;;;30.90;28.60;;;;;;;31.04;100.00;101155.41;6066917;23;20019;-84
2023/06/23 09:41:32;;;;;;;32.28;29.67;;;;;;;29.52;100.00;101155.00;6067383;23;20469;-83
2023/06/23 09:44:13;;;;;;;29.55;27.05;;;;;;;31.43;100.00;101147.88;6066976;23;20389;-83
2023/06/23 09:46:43;;;;;;;32.33;29.83;;;;;;;31.32;100.00;101155.69;6066718;23;20029;-83
2023/06/23 09:49:12;;;;;;;29.73;27.23;;;;;;;31.68;100.00;101148.75;6066969;23;20022;-83
2023/06/23 09:51:46;;;;;;;30.15;27.63;;;;;;;31.62;100.00;101156.41;6067300;23;20019;-83
2023/06/23 09:54:30;;;;;;;30.10;27.88;;;;;;;31.24;100.00;101149.13;6066808;23;20022;-83
2023/06/23 09:57:03;;;;;;;29.83;27.40;;;;;;;31.97;100.00;101147.03;6066755;23;20545;-83
2023/06/23 09:59:31;;;;;;;28.15;25.95;;;;;;;31.89;100.00;101145.94;6065668;23;20022;-81
2023/06/23 10:01:59;;;;;;;27.10;25.00;;;;;;;31.10;100.00;101134.88;6065988;23;20075;-81
2023/06/23 10:04:30;;;;;;;27.00;24.90;;;;;;;29.37;100.00;101131.66;6065890;23;20022;-81
2023/06/23 10:06:59;;;;;;;27.30;25.13;;;;;;;31.48;100.00;101134.75;6065581;23;20022;-82
2023/06/23 10:09:34;;;;;;;28.92;26.85;;;;;;;32.55;100.00;101125.78;6066183;23;20062;-83
2023/06/23 10:12:02;;;;;;;27.50;25.55;;;;;;;32.17;100.00;101124.16;6066873;23;20023;-83
2023/06/23 10:14:29;;;;;;;27.67;25.75;;;;;;;32.59;100.00;101113.75;6066452;23;20033;-83
2023/06/23 10:16:59;;;;;;;29.45;27.15;;;;;;;31.51;100.00;101113.25;6066861;23;20034;-83
2023/06/23 10:19:26;;;;;;;28.42;26.33;;;;;;;32.68;100.00;101113.63;6066763;23;20019;-83
2023/06/23 10:21:54;;;;;;;27.00;25.08;;;;;;;29.86;100.00;101113.09;6066610;23;20061;-84
2023/06/23 10:24:23;;;;;;;28.02;25.95;;;;;;;31.92;100.00;101118.66;6066892;23;20098;-84
2023/06/23 10:26:52;;;;;;;30.70;28.70;;;;;;;32.46;97.94;101097.63;6066669;23;20461;-83
2023/06/23 10:29:24;;;;;;;29.42;27.33;;;;;;;33.06;90.61;101104.94;6066318;23;20034;-83
2023/06/23 10:31:56;;;;;;;28.10;25.90;;;;;;;32.80;91.76;101101.78;6066224;23;20015;-81
2023/06/23 10:34:25;;;;;;;28.55;26.65;;;;;;;32.54;92.08;101093.94;6065745;23;20026;-81
2023/06/23 10:36:56;;;;;;;29.77;27.45;;;;;;;33.09;99.57;101091.66;6065705;23;20034;-81
2023/06/23 10:39:27;;;;;;;31.27;29.13;;;;;;;33.24;98.09;101091.69;6065224;23;20030;-81
2023/06/23 10:41:58;;;;;;;30.63;28.33;;;;;;;32.73;100.00;101088.63;6065320;23;20473;-81
2023/06/23 10:44:25;;;;;;;29.23;27.13;;;;;;;33.11;94.78;101084.66;6065672;23;20346;-81
2023/06/23 10:46:53;;;;;;;31.95;29.80;;;;;;;32.81;100.00;101090.44;6065608;23;20034;-81
2023/06/23 10:49:20;;;;;;;30.85;28.65;;;;;;;32.99;98.25;101077.25;6065325;23;20015;-80
2023/06/23 10:51:47;;;;;;;29.55;27.35;;;;;;;32.62;98.53;101082.03;6065406;23;20019;-80
2023/06/23 10:54:28;;;;;;;31.38;29.10;;;;;;;32.02;100.00;101070.72;6065197;23;20030;-82
2023/06/23 10:56:55;;;;;;;34.20;31.60;;;;;;;32.55;100.00;101074.34;6065020;23;20027;-81
2023/06/23 10:59:34;;;;;;;36.00;33.30;;;;;;;33.41;94.40;101074.06;6065481;23;20019;-81
2023/06/23 11:02:29;;;;;;;32.72;30.17;;;;;;;33.27;90.36;101077.22;6064962;23;20374;-81
2023/06/23 11:04:57;;;;;;;33.17;30.85;;;;;;;33.32;87.14;101072.63;6064870;23;20102;-81
2023/06/23 11:07:25;;;;;;;31.15;29.00;;;;;;;33.46;83.36;101076.53;6064945;23;20023;-81
2023/06/23 11:10:05;;;;;;;30.73;28.52;;;;;;;32.45;98.69;101076.78;6065263;23;20027;-83
2023/06/23 11:12:49;;;;;;;30.00;27.90;;;;;;;32.68;92.08;101075.13;6065643;23;20389;-83
2023/06/23 11:15:20;;;;;;;29.73;27.65;;;;;;;32.93;90.80;101075.84;6065234;23;20026;-80